Time;durP1;ratioP1;P1;durP2;ratioP2;P2;SDS_P1;SDS_P2;PMS_P1;PMS_P2;Temp;Humidity;BMP_temperature;BMP_pressure;BME280_temperature;BME280_humidity;BME280_pressure;Samples;Min_cycle;Max_cycle;Signal;HPM_P1;HPM_P2
2022/09/01 00:01:24;;;;;;;2.35;1.00;;;;;;;16.51;52.75;101964.19;5043839;28;20028;-77
2022/09/01 00:03:51;;;;;;;1.75;0.90;;;;;;;16.51;52.61;101964.19;5044986;28;20071;-77
2022/09/01 00:06:21;;;;;;;1.30;0.95;;;;;;;16.49;52.94;101960.72;5028285;28;20033;-77
2022/09/01 00:08:48;;;;;;;1.52;0.88;;;;;;;16.46;52.92;101955.56;5046033;28;20029;-77
2022/09/01 00:11:13;;;;;;;3.45;0.95;;;;;;;16.45;53.25;101964.38;5050271;28;20029;-77
2022/09/01 00:13:39;;;;;;;3.22;1.08;;;;;;;16.43;53.40;101954.81;5041496;28;20117;-77
2022/09/01 00:16:04;;;;;;;4.38;0.98;;;;;;;16.43;53.53;101960.91;5045392;28;20064;-77
2022/09/01 00:18:31;;;;;;;1.60;0.90;;;;;;;16.41;53.33;101954.84;5037078;28;20032;-77
2022/09/01 00:20:58;;;;;;;1.30;0.80;;;;;;;16.40;53.76;101958.38;5044122;28;20097;-77
2022/09/01 00:23:27;;;;;;;2.47;1.00;;;;;;;16.38;53.63;101954.97;5058131;28;20032;-77
2022/09/01 00:25:54;;;;;;;1.33;0.80;;;;;;;16.37;53.74;101951.47;5032796;28;20033;-77
2022/09/01 00:28:19;;;;;;;1.50;1.00;;;;;;;16.36;53.84;101949.75;5055656;28;20100;-77
2022/09/01 00:30:44;;;;;;;2.25;1.10;;;;;;;16.34;54.19;101950.72;5051599;28;20538;-77
2022/09/01 00:33:10;;;;;;;2.67;1.00;;;;;;;16.33;54.31;101956.88;5051613;28;20044;-77
2022/09/01 00:35:35;;;;;;;2.03;1.10;;;;;;;16.32;54.20;101965.69;5042812;28;20471;-77
2022/09/01 00:38:01;;;;;;;2.85;1.00;;;;;;;16.29;54.21;101964.00;5043313;28;20132;-77
2022/09/01 00:40:26;;;;;;;2.10;1.00;;;;;;;16.28;54.45;101966.66;5045352;28;20064;-77
2022/09/01 00:42:52;;;;;;;3.85;1.10;;;;;;;16.27;54.54;101962.31;5053887;28;20457;-77
2022/09/01 00:45:19;;;;;;;3.47;1.00;;;;;;;16.24;54.65;101961.50;5044542;28;20026;-77
2022/09/01 00:47:45;;;;;;;6.03;1.20;;;;;;;16.21;54.94;101956.38;5049478;28;20021;-77
2022/09/01 00:50:11;;;;;;;6.10;1.10;;;;;;;16.20;54.92;101956.41;5044788;28;20048;-77
2022/09/01 00:52:43;;;;;;;1.80;1.15;;;;;;;16.16;55.47;101950.41;5046588;28;20032;-77
2022/09/01 00:55:15;;;;;;;1.95;0.90;;;;;;;16.15;55.37;101947.81;5044064;28;21810;-77
2022/09/01 00:57:41;;;;;;;1.88;1.00;;;;;;;16.12;55.67;101948.78;5047334;28;20041;-77
2022/09/01 01:00:14;;;;;;;1.27;1.00;;;;;;;16.12;56.53;101950.56;5048520;28;20037;-77
2022/09/01 01:02:40;;;;;;;3.63;0.95;;;;;;;16.07;55.59;101948.06;5045422;28;20078;-77
2022/09/01 01:05:06;;;;;;;3.88;1.00;;;;;;;16.06;56.21;101952.47;5044536;28;20021;-77
2022/09/01 01:07:37;;;;;;;1.95;1.10;;;;;;;16.04;55.90;101948.19;5045112;28;20035;-77
2022/09/01 01:10:05;;;;;;;1.45;0.93;;;;;;;16.02;55.92;101948.19;5046830;28;20060;-77
2022/09/01 01:12:32;;;;;;;3.38;1.20;;;;;;;15.99;57.71;101944.81;5045362;28;20031;-77
2022/09/01 01:14:57;;;;;;;2.72;1.00;;;;;;;15.98;56.23;101945.72;5040975;28;20037;-77
2022/09/01 01:17:22;;;;;;;1.92;1.08;;;;;;;15.95;56.30;101943.19;5047612;28;20082;-77
2022/09/01 01:23:01;;;;;;;2.22;1.10;;;;;;;15.87;56.12;101951.31;5047385;28;20044;-77
2022/09/01 01:25:38;;;;;;;2.03;0.90;;;;;;;15.84;56.65;101944.38;5027419;28;20403;-77
2022/09/01 01:28:27;;;;;;;1.75;1.10;;;;;;;15.83;55.91;101950.50;5042704;28;20107;-76
2022/09/01 01:31:00;;;;;;;2.33;1.00;;;;;;;15.79;56.83;101941.00;5045640;28;20120;-77
2022/09/01 01:33:31;;;;;;;4.97;1.10;;;;;;;15.76;57.15;101943.72;5026281;28;20071;-77
2022/09/01 01:35:57;;;;;;;1.10;0.90;;;;;;;15.74;57.15;101946.41;5037403;28;20040;-77
2022/09/01 01:38:23;;;;;;;2.40;1.00;;;;;;;15.71;57.43;101945.63;5045220;28;20470;-77
2022/09/01 01:40:50;;;;;;;2.15;1.05;;;;;;;15.71;57.21;101945.63;5047105;28;20032;-77
2022/09/01 01:43:18;;;;;;;2.38;0.82;;;;;;;15.68;57.29;101953.59;5046609;28;20021;-77
2022/09/01 01:45:51;;;;;;;2.50;1.17;;;;;;;15.68;57.60;101950.97;5043863;28;20077;-77
2022/09/01 01:48:24;;;;;;;2.95;1.15;;;;;;;15.67;57.27;101946.63;5041088;28;20484;-77
2022/09/01 01:50:51;;;;;;;2.83;1.10;;;;;;;15.65;57.63;101953.69;5042591;28;20028;-77
2022/09/01 01:53:18;;;;;;;2.17;0.85;;;;;;;15.65;57.52;101945.81;5041100;28;20761;-77
2022/09/01 01:55:44;;;;;;;1.67;1.00;;;;;;;15.63;57.81;101946.72;5042752;28;20029;-77
2022/09/01 01:58:10;;;;;;;2.35;1.00;;;;;;;15.63;58.02;101954.59;5039732;28;20028;-77
2022/09/01 02:00:37;;;;;;;2.15;1.10;;;;;;;15.64;57.72;101960.66;5042696;28;20025;-77
2022/09/01 02:03:04;;;;;;;2.55;1.00;;;;;;;15.62;57.87;101950.25;5048063;28;20031;-77
2022/09/01 02:05:34;;;;;;;5.88;1.25;;;;;;;15.61;57.55;101956.38;5041846;28;20036;-77
2022/09/01 02:08:03;;;;;;;2.00;1.20;;;;;;;15.61;57.91;101955.53;5043080;28;20036;-77
2022/09/01 02:10:33;;;;;;;2.92;1.10;;;;;;;15.59;57.98;101950.31;5038335;28;20032;-77
2022/09/01 02:13:03;;;;;;;3.30;1.05;;;;;;;15.57;58.01;101952.13;5036638;28;20025;-77
2022/09/01 02:15:33;;;;;;;4.68;1.13;;;;;;;15.56;57.83;101953.03;5039896;28;20052;-77
2022/09/01 02:17:59;;;;;;;3.80;1.10;;;;;;;15.56;57.93;101953.03;5024324;28;20028;-77
2022/09/01 02:20:31;;;;;;;3.10;1.20;;;;;;;15.54;58.11;101959.22;5039796;28;20397;-77
2022/09/01 02:22:56;;;;;;;2.90;1.00;;;;;;;15.54;58.07;101959.22;5029452;28;20024;-77
2022/09/01 02:25:22;;;;;;;3.13;1.20;;;;;;;15.52;58.03;101959.28;5045547;28;20071;-77
2022/09/01 02:27:52;;;;;;;1.23;0.98;;;;;;;15.51;58.18;101959.31;5043310;28;20029;-77
2022/09/01 02:30:17;;;;;;;3.70;1.10;;;;;;;15.47;58.14;101950.69;5025913;28;20503;-77
2022/09/01 02:32:43;;;;;;;3.58;1.10;;;;;;;15.45;58.31;101952.47;5042338;28;20029;-77
2022/09/01 02:35:08;;;;;;;2.80;1.10;;;;;;;15.42;58.18;101952.56;5040005;28;20123;-77
2022/09/01 02:37:35;;;;;;;3.40;1.20;;;;;;;15.38;58.33;101949.19;5043475;28;20047;-77
2022/09/01 02:40:01;;;;;;;1.67;1.08;;;;;;;15.35;58.72;101948.41;5044256;28;20071;-77
2022/09/01 02:42:29;;;;;;;2.13;1.02;;;;;;;15.32;58.72;101949.34;5039813;28;20432;-77
2022/09/01 02:44:55;;;;;;;2.58;1.00;;;;;;;15.30;58.70;101951.16;5038191;28;20027;-77
2022/09/01 02:47:22;;;;;;;2.63;1.20;;;;;;;15.25;58.97;101953.91;5044771;28;20025;-77
2022/09/01 02:49:49;;;;;;;2.40;1.20;;;;;;;15.23;58.75;101949.59;5043090;28;20037;-77
2022/09/01 02:52:16;;;;;;;4.60;1.35;;;;;;;15.22;58.87;101948.75;5036226;28;20021;-77
2022/09/01 02:54:44;;;;;;;1.90;1.30;;;;;;;15.18;58.89;101942.72;5039376;28;20152;-77
2022/09/01 02:57:10;;;;;;;2.33;1.08;;;;;;;15.17;59.00;101945.41;5040681;28;20026;-77
2022/09/01 02:59:36;;;;;;;2.45;1.30;;;;;;;15.15;59.12;101944.56;5046957;28;20033;-77
2022/09/01 03:02:01;;;;;;;2.15;1.23;;;;;;;15.09;59.29;101940.38;5039408;28;20024;-77
2022/09/01 03:04:27;;;;;;;2.65;1.30;;;;;;;15.06;59.31;101935.22;5042957;28;20064;-77
2022/09/01 03:06:53;;;;;;;3.00;1.20;;;;;;;15.01;59.62;101937.97;5035997;28;20032;-76
2022/09/01 03:09:19;;;;;;;1.80;1.25;;;;;;;14.99;59.64;101934.50;5039588;28;20156;-77
2022/09/01 03:11:48;;;;;;;2.10;1.17;;;;;;;14.98;59.80;101939.78;5035362;28;20104;-77
2022/09/01 03:14:14;;;;;;;1.98;1.25;;;;;;;14.94;59.51;101938.16;5036745;28;20061;-77
2022/09/01 03:16:40;;;;;;;3.30;1.10;;;;;;;14.91;59.67;101936.47;5037396;28;20024;-77
2022/09/01 03:19:07;;;;;;;3.22;1.05;;;;;;;14.91;59.74;101935.63;5040737;28;20115;-77
2022/09/01 03:21:34;;;;;;;2.17;1.30;;;;;;;14.90;59.66;101933.91;5042336;28;20031;-77
2022/09/01 03:24:02;;;;;;;3.70;1.30;;;;;;;14.86;59.89;101938.34;5043019;28;20149;-77
2022/09/01 03:26:28;;;;;;;3.20;1.35;;;;;;;14.84;60.40;101925.28;5035622;28;20021;-77
2022/09/01 03:28:54;;;;;;;2.92;1.27;;;;;;;14.81;60.01;101933.22;5039903;28;20044;-77
2022/09/01 03:31:20;;;;;;;2.38;1.30;;;;;;;14.79;60.29;101931.56;5037176;28;20057;-77
2022/09/01 03:33:46;;;;;;;2.42;1.40;;;;;;;14.75;60.43;101932.53;5040851;28;20107;-77
2022/09/01 03:36:17;;;;;;;4.30;1.35;;;;;;;14.72;60.35;101939.56;5035935;28;20559;-77
2022/09/01 03:38:43;;;;;;;;;;;;;;;14.76;58.51;101929.00;5025332;28;20107;-77
2022/09/01 03:41:09;;;;;;;2.53;1.40;;;;;;;14.66;59.82;101934.47;5038490;28;20016;-77
2022/09/01 03:43:34;;;;;;;4.15;1.38;;;;;;;14.64;59.98;101943.25;5039103;28;20035;-77
2022/09/01 03:45:59;;;;;;;1.70;1.38;;;;;;;14.61;60.14;101938.94;5034443;28;20032;-77
2022/09/01 03:48:28;;;;;;;2.22;1.30;;;;;;;14.57;60.27;101937.31;5038317;28;20024;-77
2022/09/01 03:50:56;;;;;;;3.05;1.23;;;;;;;14.55;59.98;101933.84;5037094;28;20036;-77
2022/09/01 03:53:26;;;;;;;5.20;1.40;;;;;;;14.53;60.01;101943.50;5037272;28;20037;-77
2022/09/01 03:55:53;;;;;;;3.00;1.30;;;;;;;14.51;60.15;101937.47;5035202;28;20412;-77
2022/09/01 03:58:19;;;;;;;2.97;1.30;;;;;;;14.50;59.95;101935.75;5040177;28;21876;-77
2022/09/01 04:00:54;;;;;;;2.15;1.15;;;;;;;14.47;60.27;101935.81;5036980;28;20032;-77
2022/09/01 04:03:24;;;;;;;3.80;1.27;;;;;;;14.45;60.22;101938.47;5022852;28;20520;-77
2022/09/01 04:05:51;;;;;;;2.28;1.40;;;;;;;14.42;60.00;101936.78;5036454;28;20064;-77
2022/09/01 04:08:18;;;;;;;4.30;1.45;;;;;;;14.42;60.21;101941.16;5037086;28;20074;-77
2022/09/01 04:10:50;;;;;;;2.50;1.30;;;;;;;14.38;60.12;101935.13;5037549;28;20084;-77
2022/09/01 04:13:29;;;;;;;2.92;1.20;;;;;;;14.36;60.14;101939.53;5042948;28;20580;-77
2022/09/01 04:15:55;;;;;;;1.92;1.25;;;;;;;14.34;60.47;101938.75;5036840;28;20295;-77
2022/09/01 04:18:20;;;;;;;1.55;1.30;;;;;;;14.32;60.37;101932.69;5048456;28;20028;-77
2022/09/01 04:20:51;;;;;;;3.85;1.50;;;;;;;14.27;60.42;101932.75;5046513;28;20024;-77
2022/09/01 04:23:28;;;;;;;2.60;1.25;;;;;;;14.26;60.29;101930.19;5026037;28;20056;-77
2022/09/01 04:26:09;;;;;;;3.17;1.23;;;;;;;14.24;59.97;101931.97;5026585;28;20552;-77
2022/09/01 04:28:37;;;;;;;4.43;1.30;;;;;;;14.21;60.18;101934.66;5041388;28;20028;-77
2022/09/01 04:31:07;;;;;;;3.35;1.40;;;;;;;14.18;60.17;101938.22;5041062;28;20037;-77
2022/09/01 04:33:37;;;;;;;4.05;1.20;;;;;;;14.17;60.08;101935.66;5044050;28;20027;-77
2022/09/01 04:36:04;;;;;;;3.72;1.40;;;;;;;14.15;60.21;101938.28;5041518;28;20103;-76
2022/09/01 04:38:29;;;;;;;3.85;1.25;;;;;;;14.13;60.27;101929.63;5043358;28;20032;-77
2022/09/01 04:40:56;;;;;;;3.47;1.40;;;;;;;14.10;60.91;101935.78;5051457;28;20161;-77
2022/09/01 04:43:22;;;;;;;2.42;1.50;;;;;;;14.09;60.34;101939.31;5047389;28;20471;-77
2022/09/01 04:45:50;;;;;;;3.80;1.50;;;;;;;14.05;61.08;101932.41;5042465;28;20029;-77
2022/09/01 04:48:18;;;;;;;3.28;1.40;;;;;;;14.03;60.60;101939.44;5044714;28;20021;-77
2022/09/01 04:50:43;;;;;;;1.73;1.20;;;;;;;14.01;60.57;101932.53;5046751;28;20051;-77
2022/09/01 04:53:10;;;;;;;2.42;1.17;;;;;;;13.99;60.44;101935.19;5044387;28;20468;-77
2022/09/01 04:55:39;;;;;;;2.00;1.30;;;;;;;13.95;60.44;101937.00;5044413;28;20070;-77
2022/09/01 04:58:05;;;;;;;2.45;1.33;;;;;;;13.96;60.48;101937.88;5049535;28;20025;-77
2022/09/01 05:00:31;;;;;;;2.92;1.25;;;;;;;13.94;60.32;101937.03;5042604;28;20434;-77
2022/09/01 05:03:03;;;;;;;5.35;1.40;;;;;;;13.93;61.03;101938.78;5049309;28;20032;-77
2022/09/01 05:05:38;;;;;;;3.90;1.30;;;;;;;13.93;60.28;101941.38;5044891;28;20728;-77
2022/09/01 05:08:03;;;;;;;2.92;1.20;;;;;;;13.93;60.07;101932.69;5046509;28;20021;-77
2022/09/01 05:10:28;;;;;;;2.22;1.40;;;;;;;13.93;59.98;101944.00;5047807;28;20183;-77
2022/09/01 05:12:56;;;;;;;3.40;1.40;;;;;;;13.91;59.75;101945.81;5047545;28;20050;-77
2022/09/01 05:15:22;;;;;;;3.00;1.30;;;;;;;13.92;59.98;101942.28;5045796;28;20029;-77
2022/09/01 05:17:48;;;;;;;1.80;1.20;;;;;;;13.92;60.21;101941.44;5045258;28;20041;-76
2022/09/01 05:20:13;;;;;;;2.53;1.33;;;;;;;13.92;60.21;101950.13;5045448;28;20668;-77
2022/09/01 05:22:39;;;;;;;3.92;1.38;;;;;;;13.91;59.99;101951.06;5047780;28;20028;-76
2022/09/01 05:25:12;;;;;;;4.53;1.50;;;;;;;13.91;60.02;101948.44;5045443;28;20467;-76
2022/09/01 05:27:40;;;;;;;3.28;1.13;;;;;;;13.94;60.28;101943.13;5047867;28;20027;-76
2022/09/01 05:30:07;;;;;;;1.90;1.20;;;;;;;13.98;60.07;101940.44;5045566;28;20066;-77
2022/09/01 05:32:35;;;;;;;2.60;1.70;;;;;;;14.01;60.38;101938.59;5043685;28;20219;-77
2022/09/01 05:35:01;;;;;;;4.07;1.40;;;;;;;14.06;60.25;101949.84;5045766;28;20021;-76
2022/09/01 05:37:29;;;;;;;3.40;1.30;;;;;;;14.11;60.14;101947.09;5045658;28;20373;-76
2022/09/01 05:39:55;;;;;;;2.40;1.45;;;;;;;14.16;59.71;101944.41;5026192;28;20024;-77
2022/09/01 05:42:20;;;;;;;2.72;1.50;;;;;;;14.19;59.96;101949.53;5048310;28;20445;-77
2022/09/01 05:44:46;;;;;;;2.47;1.40;;;;;;;14.23;59.79;101952.06;5048244;28;20032;-77
2022/09/01 05:47:12;;;;;;;2.35;1.17;;;;;;;14.27;59.62;101951.09;5042577;28;20033;-77
2022/09/01 05:49:38;;;;;;;4.68;1.40;;;;;;;14.35;59.97;101955.28;5027918;28;20025;-77
2022/09/01 05:52:04;;;;;;;1.83;1.10;;;;;;;14.41;59.77;101961.25;5044026;28;20030;-77
2022/09/01 05:54:31;;;;;;;4.63;1.30;;;;;;;14.47;59.68;101956.75;5047407;28;20052;-77
2022/09/01 05:56:57;;;;;;;2.45;1.20;;;;;;;14.54;59.74;101955.69;5046443;28;20029;-77
2022/09/01 05:59:23;;;;;;;2.10;1.30;;;;;;;14.62;59.29;101956.38;5048993;28;20025;-77
2022/09/01 06:01:49;;;;;;;2.33;1.35;;;;;;;14.68;58.98;101963.25;5048895;28;20112;-77
2022/09/01 06:04:15;;;;;;;2.38;1.20;;;;;;;14.75;58.84;101961.34;5045117;28;20119;-77
2022/09/01 06:06:45;;;;;;;2.05;1.20;;;;;;;14.83;60.49;101959.41;5043920;28;20096;-77
2022/09/01 06:09:12;;;;;;;1.88;1.30;;;;;;;14.92;61.26;101960.91;5041527;28;20013;-77
2022/09/01 06:11:39;;;;;;;2.00;1.08;;;;;;;14.99;60.31;101957.22;5043679;28;20029;-77
2022/09/01 06:14:09;;;;;;;2.22;1.30;;;;;;;15.06;61.24;101952.69;5040081;28;20043;-77
2022/09/01 06:16:36;;;;;;;4.20;1.20;;;;;;;15.10;59.75;101960.44;5044008;28;20029;-77
2022/09/01 06:19:02;;;;;;;2.42;1.30;;;;;;;15.13;59.95;101959.47;5044548;28;20033;-77
2022/09/01 06:21:27;;;;;;;2.67;1.30;;;;;;;15.18;61.06;101958.47;5050160;28;20023;-77
2022/09/01 06:23:55;;;;;;;3.88;1.35;;;;;;;15.23;59.04;101963.56;5043892;28;20108;-77
2022/09/01 06:26:30;;;;;;;6.20;1.23;;;;;;;15.26;59.18;101963.50;5042595;28;20108;-76
2022/09/01 06:28:57;;;;;;;1.98;1.25;;;;;;;15.29;59.64;101971.28;5042780;28;20028;-77
2022/09/01 06:31:26;;;;;;;2.90;1.30;;;;;;;15.30;58.75;101966.88;5037847;28;20064;-76
2022/09/01 06:33:54;;;;;;;2.72;1.40;;;;;;;15.32;58.33;101962.44;5041225;28;20031;-77
2022/09/01 06:36:22;;;;;;;5.00;1.50;;;;;;;15.36;58.71;101964.09;5038984;28;20029;-77
2022/09/01 06:38:52;;;;;;;2.80;1.55;;;;;;;15.40;58.90;101967.47;5027067;28;20021;-77
2022/09/01 06:41:20;;;;;;;2.78;1.55;;;;;;;15.46;59.58;101962.06;5038953;28;20376;-77
2022/09/01 06:43:48;;;;;;;3.05;1.30;;;;;;;15.49;58.87;101972.47;5041327;28;20025;-77
2022/09/01 06:46:15;;;;;;;4.05;1.60;;;;;;;15.53;57.70;101970.63;5037682;28;20036;-77
2022/09/01 06:48:45;;;;;;;2.70;1.45;;;;;;;15.58;58.37;101973.97;5046573;28;20530;-76
2022/09/01 06:51:12;;;;;;;4.93;1.70;;;;;;;15.62;58.34;101967.75;5040687;28;20056;-76
2022/09/01 06:53:39;;;;;;;2.05;1.20;;;;;;;15.68;59.87;101974.59;5042019;28;20035;-76
2022/09/01 06:56:04;;;;;;;4.53;1.52;;;;;;;15.71;58.19;101971.88;5039607;28;20083;-76
2022/09/01 06:58:30;;;;;;;5.85;1.80;;;;;;;15.76;57.63;101972.56;5039324;28;20029;-76
2022/09/01 07:00:56;;;;;;;2.45;1.40;;;;;;;15.83;59.24;101976.75;5040848;28;20031;-77
2022/09/01 07:03:23;;;;;;;3.30;1.40;;;;;;;15.88;58.65;101971.41;5033454;28;20018;-77
2022/09/01 07:05:50;;;;;;;2.10;1.52;;;;;;;15.95;58.18;101979.94;5015853;28;20032;-76
2022/09/01 07:08:18;;;;;;;2.47;1.48;;;;;;;16.01;58.32;101970.09;5022148;28;20048;-76
2022/09/01 07:10:46;;;;;;;2.83;1.50;;;;;;;16.08;58.46;101976.03;5037938;28;20020;-76
2022/09/01 07:13:19;;;;;;;3.35;1.70;;;;;;;16.14;57.80;101973.22;5040156;28;20056;-76
2022/09/01 07:15:48;;;;;;;3.38;1.65;;;;;;;16.21;58.03;101980.00;5038391;28;20507;-77
2022/09/01 07:18:16;;;;;;;3.53;1.70;;;;;;;16.29;57.55;101986.78;5036980;28;20074;-77
2022/09/01 07:20:43;;;;;;;4.70;1.50;;;;;;;16.37;57.90;101984.78;5021049;28;20028;-76
2022/09/01 07:23:10;;;;;;;4.72;1.63;;;;;;;16.44;57.70;101982.81;5036076;28;20025;-76
2022/09/01 07:25:40;;;;;;;2.72;1.38;;;;;;;16.52;57.50;101986.03;5034673;28;20036;-76
2022/09/01 07:28:07;;;;;;;3.08;1.40;;;;;;;16.58;57.11;101984.97;5035258;28;20779;-77
2022/09/01 07:30:39;;;;;;;2.17;1.50;;;;;;;16.64;56.65;101982.16;5037500;28;20037;-76
2022/09/01 07:33:07;;;;;;;3.25;1.60;;;;;;;16.72;56.67;101985.41;5037912;28;20365;-76
2022/09/01 07:35:36;;;;;;;5.65;1.90;;;;;;;16.77;57.12;101975.56;5019584;28;20025;-76
2022/09/01 07:38:03;;;;;;;3.75;1.40;;;;;;;16.86;56.70;101981.44;5016497;28;20058;-76
2022/09/01 07:40:28;;;;;;;3.10;1.38;;;;;;;16.94;56.58;101982.03;5038099;28;20047;-76
2022/09/01 07:42:56;;;;;;;3.78;1.40;;;;;;;17.01;56.66;101980.94;5032634;28;20029;-77
2022/09/01 07:45:22;;;;;;;1.33;1.10;;;;;;;17.07;56.46;101983.38;5030488;28;20029;-77
2022/09/01 07:47:48;;;;;;;2.28;1.20;;;;;;;17.15;56.97;101988.38;5032343;28;20029;-77
2022/09/01 07:50:14;;;;;;;2.35;1.33;;;;;;;17.21;56.76;101982.03;5034073;28;20029;-77
2022/09/01 07:52:48;;;;;;;1.70;1.30;;;;;;;17.28;55.94;101975.59;5037727;28;20033;-77
2022/09/01 07:55:15;;;;;;;4.32;1.65;;;;;;;17.33;55.02;101980.72;5034251;28;20029;-77
2022/09/01 07:57:44;;;;;;;4.70;1.48;;;;;;;17.37;55.12;101982.31;5033569;28;20731;-79
2022/09/01 08:00:14;;;;;;;2.38;1.42;;;;;;;17.42;56.39;101983.84;5036109;28;20165;-77
2022/09/01 08:02:42;;;;;;;4.05;1.33;;;;;;;17.51;56.15;101987.06;5038411;28;20088;-77
2022/09/01 08:05:09;;;;;;;3.38;1.35;;;;;;;17.58;54.86;101983.31;5039546;28;20021;-78
2022/09/01 08:07:35;;;;;;;2.95;1.20;;;;;;;17.63;55.52;101986.63;5038818;28;20111;-77
2022/09/01 08:10:03;;;;;;;3.88;1.13;;;;;;;17.67;54.73;101984.75;5038666;28;20071;-77
2022/09/01 08:12:28;;;;;;;4.72;1.30;;;;;;;17.72;54.28;101981.03;5038026;28;20033;-77
2022/09/01 08:14:53;;;;;;;2.40;1.20;;;;;;;17.81;56.28;101989.47;5041058;28;20494;-77
2022/09/01 08:17:20;;;;;;;7.15;1.30;;;;;;;17.86;53.91;101991.00;5042900;28;20043;-77
2022/09/01 08:19:45;;;;;;;1.80;1.10;;;;;;;17.93;55.41;101988.16;5044813;28;20090;-77
2022/09/01 08:22:11;;;;;;;2.25;1.10;;;;;;;17.97;54.06;101989.75;5044755;28;20033;-77
2022/09/01 08:24:37;;;;;;;2.10;1.25;;;;;;;18.01;53.93;101989.59;5045292;28;21175;-77
2022/09/01 08:27:03;;;;;;;1.75;1.20;;;;;;;18.07;53.45;101990.28;5046283;28;20048;-77
2022/09/01 08:29:28;;;;;;;3.80;1.25;;;;;;;18.14;53.44;101994.38;5045553;28;20163;-77
2022/09/01 08:31:53;;;;;;;3.00;1.15;;;;;;;18.21;55.39;101987.97;5043147;28;20590;-77
2022/09/01 08:34:19;;;;;;;1.77;1.10;;;;;;;18.27;53.67;101982.47;5029802;28;20040;-77
2022/09/01 08:36:45;;;;;;;2.75;1.23;;;;;;;18.32;53.05;101995.44;5045223;28;20032;-77
2022/09/01 08:39:10;;;;;;;3.60;1.17;;;;;;;18.38;53.78;101986.44;5041604;28;20040;-77
2022/09/01 08:41:48;;;;;;;4.35;1.20;;;;;;;18.42;52.87;101991.50;5043512;28;20468;-77
2022/09/01 08:44:24;;;;;;;2.13;1.20;;;;;;;18.48;53.52;101991.28;5043675;28;20029;-76
2022/09/01 08:46:56;;;;;;;1.55;1.08;;;;;;;18.55;52.99;101986.59;5044471;28;20131;-77
2022/09/01 08:49:24;;;;;;;1.38;1.00;;;;;;;18.62;52.75;101988.06;5045754;28;20442;-77
2022/09/01 08:51:56;;;;;;;2.58;1.17;;;;;;;18.70;52.14;101979.84;5042754;28;20033;-77
2022/09/01 08:54:33;;;;;;;3.72;1.17;;;;;;;18.75;52.36;101979.66;5034914;28;20068;-77
2022/09/01 08:57:04;;;;;;;1.90;1.10;;;;;;;18.80;51.60;101989.06;5038010;28;20035;-78
2022/09/01 08:59:29;;;;;;;3.35;1.10;;;;;;;18.89;52.23;101989.59;5039166;28;20472;-78
2022/09/01 09:02:02;;;;;;;4.03;1.10;;;;;;;18.96;52.19;101989.28;5036734;28;20025;-78
2022/09/01 09:04:50;;;;;;;2.13;1.10;;;;;;;19.06;51.77;101983.63;5034940;28;20033;-78
2022/09/01 09:07:32;;;;;;;4.97;1.02;;;;;;;19.13;51.05;101976.31;5033247;28;20167;-78
2022/09/01 09:10:09;;;;;;;3.50;1.10;;;;;;;19.19;51.05;101971.63;5036995;28;20039;-79
2022/09/01 09:12:53;;;;;;;2.30;1.10;;;;;;;19.24;50.57;101968.78;5035143;28;20033;-82
2022/09/01 09:15:31;;;;;;;2.00;1.00;;;;;;;19.32;50.72;101965.78;5036201;28;20033;-78
2022/09/01 09:18:08;;;;;;;2.15;1.10;;;;;;;19.40;49.69;101974.22;5035037;28;20033;-81
2022/09/01 09:20:34;;;;;;;1.75;1.10;;;;;;;19.46;48.58;101968.69;5034839;28;20040;-78
2022/09/01 09:23:11;;;;;;;2.80;1.00;;;;;;;19.51;48.95;101969.31;5038322;28;20511;-77
2022/09/01 09:25:36;;;;;;;4.03;1.10;;;;;;;19.58;49.38;101975.16;5037879;28;20073;-77
2022/09/01 09:28:02;;;;;;;2.25;1.00;;;;;;;19.62;49.76;101970.63;5037740;28;20471;-78
2022/09/01 09:30:31;;;;;;;2.67;1.05;;;;;;;19.66;49.53;101958.97;5036254;28;20124;-79
2022/09/01 09:33:02;;;;;;;2.38;1.00;;;;;;;19.71;48.73;101956.97;5033278;28;20032;-78
2022/09/01 09:35:32;;;;;;;1.58;0.90;;;;;;;19.77;48.58;101948.78;5025439;28;20032;-79
2022/09/01 09:38:21;;;;;;;1.25;0.90;;;;;;;19.87;48.95;101957.16;5035214;28;20041;-77
2022/09/01 09:41:13;;;;;;;3.35;1.00;;;;;;;19.94;48.99;101950.66;5034079;28;20108;-79
2022/09/01 09:43:47;;;;;;;1.52;0.95;;;;;;;19.98;46.54;101946.09;5040124;28;20032;-78
2022/09/01 09:46:20;;;;;;;1.67;0.88;;;;;;;20.04;48.28;101948.41;5035776;28;20033;-80
2022/09/01 09:48:46;;;;;;;2.38;0.90;;;;;;;20.11;46.76;101931.34;5034387;28;20136;-86
2022/09/01 09:51:21;;;;;;;2.92;1.00;;;;;;;20.22;48.14;101941.41;5038672;28;20037;-80
2022/09/01 09:53:47;;;;;;;2.58;0.82;;;;;;;20.27;45.44;101935.88;5034751;28;20075;-79
2022/09/01 09:56:18;;;;;;;1.50;0.90;;;;;;;20.32;46.69;101933.88;5033202;28;20160;-78
2022/09/01 09:58:46;;;;;;;1.65;0.80;;;;;;;20.38;45.13;101936.19;5037166;28;20037;-78
2022/09/01 10:01:21;;;;;;;2.45;0.88;;;;;;;20.39;45.54;101931.78;5039532;28;20025;-77
2022/09/01 10:03:58;;;;;;;2.60;0.77;;;;;;;20.42;43.98;101936.88;5033746;28;20052;-78
2022/09/01 10:06:29;;;;;;;1.05;0.70;;;;;;;20.43;43.19;101926.25;5036044;28;20150;-77
2022/09/01 10:08:57;;;;;;;2.20;0.80;;;;;;;20.49;44.06;101932.19;5037267;28;20075;-78
2022/09/01 10:11:30;;;;;;;3.22;0.68;;;;;;;20.53;45.38;101933.72;5034490;28;20476;-77
2022/09/01 10:13:55;;;;;;;1.30;0.75;;;;;;;20.53;43.36;101931.06;5037555;28;20122;-77
2022/09/01 10:16:28;;;;;;;1.23;0.82;;;;;;;20.55;43.18;101931.84;5034560;28;20025;-77
2022/09/01 10:18:59;;;;;;;6.80;0.90;;;;;;;20.60;43.58;101935.13;5032601;28;20055;-78
2022/09/01 10:21:31;;;;;;;1.02;0.80;;;;;;;20.59;41.82;101930.78;5034793;28;20108;-78
2022/09/01 10:23:58;;;;;;;4.55;0.85;;;;;;;20.61;41.52;101923.63;5037000;28;20032;-78
2022/09/01 10:26:32;;;;;;;1.85;0.80;;;;;;;20.63;43.24;101925.25;5035007;28;20036;-78
2022/09/01 10:29:05;;;;;;;2.05;0.82;;;;;;;20.69;41.58;101917.94;5034946;28;20115;-79
2022/09/01 10:31:31;;;;;;;1.00;0.70;;;;;;;20.73;40.96;101915.03;5035838;28;20041;-78
2022/09/01 10:33:58;;;;;;;2.20;0.70;;;;;;;20.76;41.72;101914.94;5037671;28;20037;-79
2022/09/01 10:36:23;;;;;;;1.20;0.82;;;;;;;20.75;40.35;101907.94;5032577;28;20029;-79
2022/09/01 10:38:49;;;;;;;1.80;0.80;;;;;;;20.77;40.31;101911.34;5033284;28;20126;-79
2022/09/01 10:41:49;;;;;;;1.42;0.70;;;;;;;20.81;41.87;101906.75;5032323;28;20029;-79
2022/09/01 10:45:02;;;;;;;1.55;0.70;;;;;;;20.91;42.57;101918.56;5019537;28;20375;-79
2022/09/01 10:47:32;;;;;;;1.35;0.70;;;;;;;20.95;40.14;101900.75;5021566;28;20037;-79
2022/09/01 10:50:23;;;;;;;3.00;1.00;;;;;;;21.00;41.67;101901.34;5033854;28;20041;-79
2022/09/01 10:52:48;;;;;;;4.20;0.80;;;;;;;21.04;39.47;101908.16;5027322;28;20029;-79
2022/09/01 10:55:17;;;;;;;1.05;0.90;;;;;;;21.04;37.29;101902.88;5030311;28;20048;-79
2022/09/01 10:58:02;;;;;;;4.75;1.42;;;;;;;21.04;39.28;101897.59;5028861;28;20037;-78
2022/09/01 11:00:27;;;;;;;3.88;1.30;;;;;;;21.06;37.97;101895.72;5027512;28;20615;-78
2022/09/01 11:03:10;;;;;;;2.65;1.00;;;;;;;21.10;40.13;101884.97;5028023;28;20041;-86
2022/09/01 11:05:54;;;;;;;1.40;0.80;;;;;;;21.15;39.53;101904.13;5027139;28;20082;-79
2022/09/01 11:08:28;;;;;;;3.78;0.70;;;;;;;21.16;37.65;101890.78;5026886;28;20056;-79
2022/09/01 11:11:07;;;;;;;3.08;0.55;;;;;;;21.18;37.04;101894.22;5032102;28;20078;-80
2022/09/01 11:13:44;;;;;;;1.58;0.70;;;;;;;21.21;36.68;101883.47;5028086;28;20029;-80
2022/09/01 11:16:24;;;;;;;1.25;0.70;;;;;;;21.26;39.22;101895.59;5028138;28;20037;-79
2022/09/01 11:18:50;;;;;;;2.85;0.73;;;;;;;21.29;37.37;101896.28;5030888;28;20527;-79
2022/09/01 11:21:26;;;;;;;1.15;0.75;;;;;;;21.32;38.68;101893.47;5033857;28;20044;-78
2022/09/01 11:24:40;;;;;;;1.60;0.80;;;;;;;21.34;38.86;101882.78;5033616;28;20024;-79
2022/09/01 11:27:09;;;;;;;1.98;0.50;;;;;;;21.38;37.34;101895.75;4964378;28;20054;-79
2022/09/01 11:29:50;;;;;;;0.80;0.60;;;;;;;21.42;37.42;101891.19;5033386;28;20574;-82
2022/09/01 11:32:15;;;;;;;0.82;0.50;;;;;;;21.40;36.23;101885.13;5033564;28;20063;-79
2022/09/01 11:34:43;;;;;;;1.58;0.70;;;;;;;21.43;36.35;101876.13;5029401;28;20041;-79
2022/09/01 11:37:15;;;;;;;1.52;0.70;;;;;;;21.46;36.80;101882.09;5027960;28;20431;-79